createdAt,value
2018-01-07T00:01:01.177Z,6.6
2018-01-07T00:02:02.722Z,6.6
2018-01-07T00:03:04.211Z,6.5
2018-01-07T00:04:05.709Z,6.6
2018-01-07T00:05:07.214Z,6.6
2018-01-07T00:06:08.739Z,6.6
2018-01-07T00:07:10.263Z,6.6
2018-01-07T00:08:11.780Z,6.6
2018-01-07T00:09:13.301Z,6.7
2018-01-07T00:10:14.754Z,6.7
2018-01-07T00:11:16.226Z,6.6
2018-01-07T00:12:17.729Z,6.7
2018-01-07T00:13:19.318Z,6.6
2018-01-07T00:14:20.768Z,6.6
2018-01-07T00:15:22.253Z,6.6
2018-01-07T00:16:23.838Z,6.5
2018-01-07T00:17:25.313Z,6.5
2018-01-07T00:18:26.790Z,6.5
2018-01-07T00:19:28.299Z,6.6
2018-01-07T00:20:29.788Z,6.6
2018-01-07T00:21:31.262Z,6.6
2018-01-07T00:22:32.758Z,6.6
2018-01-07T00:23:34.280Z,6.7
2018-01-07T00:24:35.793Z,6.7
2018-01-07T00:25:37.369Z,6.7
2018-01-07T00:26:38.838Z,6.7
2018-01-07T00:27:40.388Z,6.6
2018-01-07T00:28:42.074Z,6.6
2018-01-07T00:29:43.635Z,6.5
2018-01-07T00:30:45.103Z,6.6
2018-01-07T00:31:46.642Z,6.6
2018-01-07T00:32:48.333Z,6.5
2018-01-07T00:33:49.849Z,6.6
2018-01-07T00:34:51.414Z,6.6
2018-01-07T00:35:52.993Z,6.7
2018-01-07T00:36:54.516Z,6.7
2018-01-07T00:37:56.027Z,6.6
2018-01-07T00:38:57.537Z,6.6
2018-01-07T00:39:59.295Z,6.6
2018-01-07T00:41:00.767Z,6.5
2018-01-07T00:42:02.260Z,6.4
2018-01-07T00:43:03.806Z,6.5
2018-01-07T00:44:05.286Z,6.5
2018-01-07T00:45:06.806Z,6.5
2018-01-07T00:46:08.353Z,6.5
2018-01-07T00:47:09.866Z,6.5
2018-01-07T00:48:11.320Z,6.4
2018-01-07T00:49:12.857Z,6.5
2018-01-07T00:50:14.328Z,6.4
2018-01-07T00:51:15.781Z,6.4
2018-01-07T00:52:17.501Z,6.4
2018-01-07T00:53:18.968Z,6.4
2018-01-07T00:54:20.490Z,6.3
2018-01-07T00:55:21.990Z,6.4
2018-01-07T00:56:23.532Z,6.4
2018-01-07T00:57:25.069Z,6.3
2018-01-07T00:58:26.560Z,6.4
2018-01-07T00:59:28.035Z,6.3
2018-01-07T01:00:29.576Z,6.4
2018-01-07T01:01:31.096Z,6.3
2018-01-07T01:02:32.657Z,6.4
2018-01-07T01:03:34.236Z,6.5
2018-01-07T01:04:35.764Z,6.5
2018-01-07T01:05:37.255Z,6.4
2018-01-07T01:06:38.732Z,6.5
2018-01-07T01:07:40.243Z,6.5
2018-01-07T01:08:41.736Z,6.4
2018-01-07T01:09:43.123Z,6.5
2018-01-07T01:10:44.678Z,6.5
2018-01-07T01:11:46.234Z,6.4
2018-01-07T01:12:47.779Z,6.4
2018-01-07T01:13:49.301Z,6.5
2018-01-07T01:14:50.795Z,6.4
2018-01-07T01:15:52.277Z,6.3
2018-01-07T01:16:53.800Z,6.3
2018-01-07T01:17:55.272Z,6.3
2018-01-07T01:18:56.837Z,6.3
2018-01-07T01:19:58.577Z,6.2
2018-01-07T01:21:00.115Z,6.3
2018-01-07T01:22:01.622Z,6.3
2018-01-07T01:23:03.167Z,6.3
2018-01-07T01:24:04.648Z,6.3
2018-01-07T01:25:06.152Z,6.3
2018-01-07T01:26:09.092Z,6.3
2018-01-07T01:27:10.545Z,6.3
2018-01-07T01:28:11.992Z,6.4
2018-01-07T01:29:13.491Z,6.3
2018-01-07T01:30:14.967Z,6.2
2018-01-07T01:31:16.430Z,6.3
2018-01-07T01:32:17.961Z,6.2
2018-01-07T01:33:19.468Z,6.2
2018-01-07T01:34:21.021Z,6.2
2018-01-07T01:35:22.596Z,6.2
2018-01-07T01:36:24.094Z,6.2
2018-01-07T01:37:25.604Z,6.2
2018-01-07T01:38:27.048Z,6.3
2018-01-07T01:39:28.669Z,6.1
2018-01-07T01:40:30.068Z,6.2
2018-01-07T01:41:31.577Z,6.2
2018-01-07T01:42:33.083Z,6.3
2018-01-07T01:43:34.582Z,6.2
2018-01-07T01:44:36.073Z,6.2
2018-01-07T01:45:37.585Z,6.2
2018-01-07T01:46:39.108Z,6.3
2018-01-07T01:47:40.600Z,6.3
2018-01-07T01:48:42.041Z,6.2
2018-01-07T01:49:43.775Z,6.2
2018-01-07T01:50:45.269Z,6.2
2018-01-07T01:51:46.740Z,6.2
2018-01-07T01:52:48.217Z,6.2
2018-01-07T01:53:49.745Z,6.3
2018-01-07T01:54:51.240Z,6.2
2018-01-07T01:55:52.693Z,6.2
2018-01-07T01:56:54.282Z,6.2
2018-01-07T01:57:55.797Z,6.2
2018-01-07T01:58:57.332Z,6.1
2018-01-07T01:59:58.893Z,6.3
2018-01-07T02:01:00.341Z,6.2
2018-01-07T02:02:02.174Z,6.2
2018-01-07T02:03:03.688Z,6.1
2018-01-07T02:04:05.217Z,6.1
2018-01-07T02:05:06.662Z,6.2
2018-01-07T02:06:08.159Z,6.2
2018-01-07T02:07:09.630Z,6.2
2018-01-07T02:08:11.122Z,6.0
2018-01-07T02:09:12.671Z,6.1
2018-01-07T02:10:14.190Z,6.1
2018-01-07T02:11:15.747Z,6.1
2018-01-07T02:12:17.227Z,6.1
2018-01-07T02:13:18.710Z,6.1
2018-01-07T02:14:20.149Z,6.0
2018-01-07T02:15:21.663Z,6.1
2018-01-07T02:16:23.177Z,6.0
2018-01-07T02:17:24.667Z,6.1
2018-01-07T02:18:26.133Z,6.1
2018-01-07T02:19:27.597Z,6.0
2018-01-07T02:20:29.063Z,6.0
2018-01-07T02:21:30.606Z,5.9
2018-01-07T02:22:32.168Z,6.0
2018-01-07T02:23:33.699Z,6.0
2018-01-07T02:24:35.190Z,6.1
2018-01-07T02:25:36.696Z,6.0
2018-01-07T02:26:38.191Z,6.0
2018-01-07T02:27:39.708Z,6.0
2018-01-07T02:28:41.230Z,6.0
2018-01-07T02:29:43.668Z,5.9
2018-01-07T02:30:45.185Z,6.0
2018-01-07T02:31:46.648Z,6.0
2018-01-07T02:32:48.193Z,6.0
2018-01-07T02:33:49.679Z,5.9
2018-01-07T02:34:51.172Z,6.0
2018-01-07T02:35:52.765Z,6.0
2018-01-07T02:36:54.220Z,6.0
2018-01-07T02:37:55.733Z,6.0
2018-01-07T02:38:57.198Z,6.0
2018-01-07T02:39:58.656Z,6.0
2018-01-07T02:41:00.135Z,6.0
2018-01-07T02:42:01.544Z,6.0
2018-01-07T02:43:02.965Z,6.0
2018-01-07T02:44:04.389Z,6.1
2018-01-07T02:45:05.818Z,6.0
2018-01-07T02:46:07.329Z,6.0
2018-01-07T02:47:08.839Z,5.9
2018-01-07T02:48:10.304Z,5.9
2018-01-07T02:49:11.772Z,6.0
2018-01-07T02:50:13.252Z,5.9
2018-01-07T02:51:14.736Z,5.9
2018-01-07T02:52:16.226Z,6.0
2018-01-07T02:53:17.690Z,5.9
2018-01-07T02:54:19.184Z,5.8
2018-01-07T02:55:20.670Z,5.9
2018-01-07T02:56:22.152Z,6.0
2018-01-07T02:57:23.634Z,5.9
2018-01-07T02:58:25.184Z,5.9
2018-01-07T02:59:26.717Z,5.9
2018-01-07T03:00:28.208Z,6.0
2018-01-07T03:01:29.760Z,6.0
2018-01-07T03:02:31.249Z,6.0
2018-01-07T03:03:32.786Z,6.0
2018-01-07T03:04:34.371Z,6.0
2018-01-07T03:05:35.895Z,6.0
2018-01-07T03:06:37.356Z,6.0
2018-01-07T03:07:38.855Z,6.0
2018-01-07T03:08:40.356Z,6.0
2018-01-07T03:09:41.887Z,5.9
2018-01-07T03:10:43.382Z,5.9
2018-01-07T03:11:44.924Z,6.0
2018-01-07T03:12:46.451Z,5.9
2018-01-07T03:13:47.986Z,5.9
2018-01-07T03:14:49.487Z,5.9
2018-01-07T03:15:50.954Z,5.9
2018-01-07T03:16:52.476Z,5.9
2018-01-07T03:17:54.025Z,6.0
2018-01-07T03:18:55.604Z,5.9
2018-01-07T03:19:57.025Z,6.0
2018-01-07T03:20:58.622Z,6.0
2018-01-07T03:22:00.037Z,6.0
2018-01-07T03:23:01.520Z,6.0
2018-01-07T03:24:03.000Z,6.0
2018-01-07T03:25:04.498Z,6.1
2018-01-07T03:26:06.045Z,6.1
2018-01-07T03:27:07.520Z,6.0
2018-01-07T03:28:09.051Z,6.0
2018-01-07T03:29:10.565Z,5.9
2018-01-07T03:30:12.101Z,6.0
2018-01-07T03:31:13.574Z,6.0
2018-01-07T03:32:15.027Z,6.0
2018-01-07T03:33:17.299Z,5.9
2018-01-07T03:34:18.770Z,6.0
2018-01-07T03:35:20.272Z,6.0
2018-01-07T03:36:21.771Z,6.0
2018-01-07T03:37:23.310Z,5.9
2018-01-07T03:38:24.759Z,5.9
2018-01-07T03:39:26.259Z,6.0
2018-01-07T03:40:27.740Z,5.9
2018-01-07T03:41:29.193Z,5.9
2018-01-07T03:42:30.671Z,5.9
2018-01-07T03:43:32.167Z,5.9
2018-01-07T03:44:33.658Z,6.0
2018-01-07T03:45:35.146Z,5.9
2018-01-07T03:46:36.729Z,5.9
2018-01-07T03:47:38.170Z,5.9
2018-01-07T03:48:39.658Z,5.9
2018-01-07T03:49:41.169Z,5.9
2018-01-07T03:50:42.631Z,5.8
2018-01-07T03:51:44.103Z,5.9
2018-01-07T03:52:45.582Z,5.9
2018-01-07T03:53:47.080Z,5.9
2018-01-07T03:54:48.547Z,5.9
2018-01-07T03:55:50.060Z,5.8
2018-01-07T03:56:51.599Z,5.9
2018-01-07T03:57:53.169Z,5.8
2018-01-07T03:58:54.772Z,5.8
2018-01-07T03:59:56.246Z,5.8
2018-01-07T04:00:57.744Z,5.8
2018-01-07T04:01:59.294Z,5.9
2018-01-07T04:03:00.813Z,5.9
2018-01-07T04:04:02.326Z,5.8
2018-01-07T04:05:03.807Z,5.8
2018-01-07T04:06:05.313Z,5.8
2018-01-07T04:07:06.846Z,5.8
2018-01-07T04:08:08.338Z,5.8
2018-01-07T04:09:09.850Z,5.8
2018-01-07T04:10:11.316Z,5.8
2018-01-07T04:11:12.869Z,5.8
2018-01-07T04:12:14.411Z,5.7
2018-01-07T04:13:15.965Z,5.7
2018-01-07T04:14:17.476Z,5.7
2018-01-07T04:15:18.984Z,5.7
2018-01-07T04:16:20.460Z,5.8
2018-01-07T04:17:21.982Z,5.8
2018-01-07T04:18:23.511Z,5.7
2018-01-07T04:19:25.051Z,5.8
2018-01-07T04:20:26.616Z,5.7
2018-01-07T04:21:28.106Z,5.7
2018-01-07T04:22:29.560Z,5.8
2018-01-07T04:23:31.061Z,5.8
2018-01-07T04:24:32.541Z,5.8
2018-01-07T04:25:34.056Z,5.6
2018-01-07T04:26:35.561Z,5.7
2018-01-07T04:27:37.072Z,5.6
2018-01-07T04:28:38.548Z,5.6
2018-01-07T04:29:40.079Z,5.6
2018-01-07T04:30:41.545Z,5.6
2018-01-07T04:31:43.039Z,5.6
2018-01-07T04:32:44.618Z,5.7
2018-01-07T04:33:46.115Z,5.7
2018-01-07T04:34:47.633Z,5.7
2018-01-07T04:35:49.136Z,5.7
2018-01-07T04:36:51.165Z,5.7
2018-01-07T04:37:52.660Z,5.7
2018-01-07T04:38:54.206Z,5.5
2018-01-07T04:39:55.741Z,5.6
2018-01-07T04:40:57.231Z,5.5
2018-01-07T04:41:58.755Z,5.5
2018-01-07T04:43:00.260Z,5.5
2018-01-07T04:44:01.718Z,5.6
2018-01-07T04:45:03.183Z,5.5
2018-01-07T04:46:04.702Z,5.5
2018-01-07T04:47:06.248Z,5.5
2018-01-07T04:48:07.766Z,5.5
2018-01-07T04:49:09.298Z,5.5
2018-01-07T04:50:10.839Z,5.5
2018-01-07T04:51:12.293Z,5.4
2018-01-07T04:52:13.771Z,5.5
2018-01-07T04:53:15.241Z,5.4
2018-01-07T04:54:16.758Z,5.4
2018-01-07T04:55:18.318Z,5.5
2018-01-07T04:56:19.787Z,5.5
2018-01-07T04:57:21.674Z,5.6
2018-01-07T04:58:23.235Z,5.5
2018-01-07T04:59:24.736Z,5.6
2018-01-07T05:00:26.290Z,5.5
2018-01-07T05:01:27.877Z,5.4
2018-01-07T05:02:29.402Z,5.5
2018-01-07T05:03:30.921Z,5.4
2018-01-07T05:04:32.453Z,5.5
2018-01-07T05:05:33.962Z,5.4
2018-01-07T05:06:35.506Z,5.4
2018-01-07T05:07:37.024Z,5.3
2018-01-07T05:08:38.554Z,5.4
2018-01-07T05:09:40.013Z,5.4
2018-01-07T05:10:41.524Z,5.4
2018-01-07T05:11:43.079Z,5.5
2018-01-07T05:12:44.618Z,5.5
2018-01-07T05:13:46.185Z,5.4
2018-01-07T05:14:47.679Z,5.4
2018-01-07T05:15:49.277Z,5.4
2018-01-07T05:16:50.807Z,5.3
2018-01-07T05:17:52.417Z,5.3
2018-01-07T05:18:53.846Z,5.3
2018-01-07T05:19:55.349Z,5.3
2018-01-07T05:20:56.859Z,5.3
2018-01-07T05:21:58.415Z,5.3
2018-01-07T05:22:59.902Z,5.2
2018-01-07T05:24:01.413Z,5.2
2018-01-07T05:25:02.930Z,5.3
2018-01-07T05:26:04.584Z,5.3
2018-01-07T05:27:06.136Z,5.2
2018-01-07T05:28:07.675Z,5.2
2018-01-07T05:29:09.236Z,5.2
2018-01-07T05:30:10.742Z,5.3
2018-01-07T05:31:12.231Z,5.3
2018-01-07T05:32:13.804Z,5.2
2018-01-07T05:33:15.352Z,5.2
2018-01-07T05:34:16.838Z,5.1
2018-01-07T05:35:18.347Z,5.2
2018-01-07T05:36:19.892Z,5.2
2018-01-07T05:37:21.438Z,5.1
2018-01-07T05:38:22.917Z,5.1
2018-01-07T05:39:24.471Z,5.2
2018-01-07T05:40:25.968Z,5.1
2018-01-07T05:41:27.483Z,5.0
2018-01-07T05:42:29.068Z,5.1
2018-01-07T05:43:30.528Z,5.0
2018-01-07T05:44:32.051Z,5.0
2018-01-07T05:45:33.590Z,5.1
2018-01-07T05:46:35.064Z,4.9
2018-01-07T05:47:36.603Z,4.9
2018-01-07T05:48:38.144Z,5.0
2018-01-07T05:49:39.651Z,4.9
2018-01-07T05:50:41.180Z,4.9
2018-01-07T05:51:42.703Z,4.9
2018-01-07T05:52:44.248Z,4.8
2018-01-07T05:53:45.716Z,4.9
2018-01-07T05:54:47.183Z,4.8
2018-01-07T05:55:48.660Z,4.8
2018-01-07T05:56:50.123Z,4.8
2018-01-07T05:57:51.586Z,4.9
2018-01-07T05:58:53.098Z,4.8
2018-01-07T05:59:54.589Z,4.8
2018-01-07T06:00:56.054Z,4.8
2018-01-07T06:01:57.569Z,4.8
2018-01-07T06:02:59.048Z,4.8
2018-01-07T06:04:00.604Z,4.8
2018-01-07T06:05:02.169Z,4.8
2018-01-07T06:06:03.640Z,4.8
2018-01-07T06:07:05.117Z,4.9
2018-01-07T06:08:06.627Z,4.8
2018-01-07T06:09:08.138Z,4.7
2018-01-07T06:10:09.657Z,4.7
2018-01-07T06:11:11.171Z,4.7
2018-01-07T06:12:12.711Z,4.7
2018-01-07T06:13:14.168Z,4.7
2018-01-07T06:14:15.678Z,4.7
2018-01-07T06:15:17.231Z,4.8
2018-01-07T06:16:18.776Z,4.7
2018-01-07T06:17:20.294Z,4.8
2018-01-07T06:18:21.807Z,4.8
2018-01-07T06:19:23.352Z,4.8
2018-01-07T06:20:24.879Z,4.7
2018-01-07T06:21:26.437Z,4.7
2018-01-07T06:22:27.922Z,4.6
2018-01-07T06:23:29.429Z,4.6
2018-01-07T06:24:30.975Z,4.5
2018-01-07T06:25:32.558Z,4.5
2018-01-07T06:26:34.073Z,4.6
2018-01-07T06:27:36.110Z,4.5
2018-01-07T06:28:37.619Z,4.6
2018-01-07T06:29:39.140Z,4.6
2018-01-07T06:30:40.645Z,4.6
2018-01-07T06:31:42.233Z,4.5
2018-01-07T06:32:43.756Z,4.5
2018-01-07T06:33:45.312Z,4.5
2018-01-07T06:34:46.819Z,4.6
2018-01-07T06:35:48.352Z,4.6
2018-01-07T06:36:49.954Z,4.6
2018-01-07T06:37:51.430Z,4.5
2018-01-07T06:38:52.954Z,4.6
2018-01-07T06:39:54.429Z,4.6
2018-01-07T06:40:55.996Z,4.5
2018-01-07T06:41:57.541Z,4.4
2018-01-07T06:42:59.091Z,4.6
2018-01-07T06:44:00.759Z,4.5
2018-01-07T06:45:02.562Z,4.5
2018-01-07T06:46:04.137Z,4.5
2018-01-07T06:47:05.730Z,4.4
2018-01-07T06:48:07.241Z,4.5
2018-01-07T06:49:10.185Z,4.5
2018-01-07T06:50:11.741Z,4.5
2018-01-07T06:51:13.279Z,4.5
2018-01-07T06:52:14.778Z,4.5
2018-01-07T06:53:16.325Z,4.5
2018-01-07T06:54:17.810Z,4.5
2018-01-07T06:55:19.281Z,4.4
2018-01-07T06:56:20.787Z,4.5
2018-01-07T06:57:22.324Z,4.4
2018-01-07T06:58:23.907Z,4.6
2018-01-07T06:59:25.405Z,4.6
2018-01-07T07:00:26.964Z,4.5
2018-01-07T07:01:28.423Z,4.5
2018-01-07T07:02:29.880Z,4.4
2018-01-07T07:03:31.399Z,4.4
2018-01-07T07:04:32.958Z,4.3
2018-01-07T07:05:34.508Z,4.3
2018-01-07T07:06:36.029Z,4.4
2018-01-07T07:07:37.562Z,4.3
2018-01-07T07:08:39.087Z,4.3
2018-01-07T07:09:40.583Z,4.4
2018-01-07T07:10:42.090Z,4.5
2018-01-07T07:11:43.615Z,4.4
2018-01-07T07:12:45.183Z,4.4
2018-01-07T07:13:46.722Z,4.3
2018-01-07T07:14:48.215Z,4.4
2018-01-07T07:15:49.712Z,4.4
2018-01-07T07:16:51.235Z,4.2
2018-01-07T07:17:52.722Z,4.3
2018-01-07T07:18:54.246Z,4.2
2018-01-07T07:19:55.839Z,4.3
2018-01-07T07:20:57.332Z,4.2
2018-01-07T07:21:58.921Z,4.2
2018-01-07T07:23:00.471Z,4.2
2018-01-07T07:24:02.022Z,4.2
2018-01-07T07:25:03.545Z,4.1
2018-01-07T07:26:05.095Z,4.2
2018-01-07T07:27:06.646Z,4.1
2018-01-07T07:28:08.149Z,4.2
2018-01-07T07:29:09.678Z,4.3
2018-01-07T07:30:11.201Z,4.3
2018-01-07T07:31:12.699Z,4.2
2018-01-07T07:32:14.199Z,4.3
2018-01-07T07:33:15.811Z,4.2
2018-01-07T07:34:17.310Z,4.2
2018-01-07T07:35:19.234Z,4.2
2018-01-07T07:36:20.845Z,4.2
2018-01-07T07:37:22.334Z,4.2
2018-01-07T07:38:23.939Z,4.2
2018-01-07T07:39:25.473Z,4.2
2018-01-07T07:40:27.038Z,4.1
2018-01-07T07:41:28.953Z,4.1
2018-01-07T07:42:30.488Z,4.2
2018-01-07T07:43:32.018Z,4.2
2018-01-07T07:44:33.587Z,4.2
2018-01-07T07:45:35.223Z,4.1
2018-01-07T07:46:36.761Z,4.2
2018-01-07T07:47:38.285Z,4.1
2018-01-07T07:48:39.868Z,4.2
2018-01-07T07:49:41.433Z,4.2
2018-01-07T07:50:42.928Z,4.2
2018-01-07T07:51:44.910Z,4.1
2018-01-07T07:52:46.388Z,4.2
2018-01-07T07:53:47.983Z,4.1
2018-01-07T07:54:50.601Z,4.1
2018-01-07T07:55:52.136Z,4.1
2018-01-07T07:56:53.592Z,4.1
2018-01-07T07:57:55.170Z,4.1
2018-01-07T07:58:56.664Z,4.2
2018-01-07T07:59:58.329Z,4.2
2018-01-07T08:01:00.262Z,4.3
2018-01-07T08:02:01.842Z,4.2
2018-01-07T08:03:03.361Z,4.3
2018-01-07T08:04:04.906Z,4.2
2018-01-07T08:05:06.438Z,4.1
2018-01-07T08:06:08.071Z,4.2
2018-01-07T08:07:09.628Z,4.1
2018-01-07T08:08:11.485Z,4.3
2018-01-07T08:09:13.021Z,4.2
2018-01-07T08:10:14.924Z,4.2
2018-01-07T08:11:16.417Z,4.2
2018-01-07T08:12:18.285Z,4.2
2018-01-07T08:13:19.849Z,4.2
2018-01-07T08:14:21.337Z,4.3
2018-01-07T08:15:23.008Z,4.1
2018-01-07T08:16:24.586Z,4.2
2018-01-07T08:17:26.079Z,4.2
2018-01-07T08:18:27.610Z,4.1
2018-01-07T08:19:29.109Z,4.3
2018-01-07T08:20:30.602Z,4.1
2018-01-07T08:21:32.834Z,4.2
2018-01-07T08:22:35.032Z,4.2
2018-01-07T08:23:37.440Z,4.2
2018-01-07T08:24:40.378Z,4.4
2018-01-07T08:25:41.885Z,4.4
2018-01-07T08:26:43.422Z,4.4
2018-01-07T08:27:44.938Z,4.4
2018-01-07T08:28:46.397Z,4.2
2018-01-07T08:29:47.926Z,4.2
2018-01-07T08:30:49.443Z,4.3
2018-01-07T08:31:50.904Z,4.2
2018-01-07T08:32:52.454Z,4.1
2018-01-07T08:33:53.978Z,4.2
2018-01-07T08:34:55.592Z,4.2
2018-01-07T08:35:57.166Z,4.2
2018-01-07T08:36:58.761Z,4.2
2018-01-07T08:38:00.281Z,4.3
2018-01-07T08:39:01.864Z,4.2
2018-01-07T08:40:03.327Z,4.3
2018-01-07T08:41:04.959Z,4.3
2018-01-07T08:42:06.499Z,4.3
2018-01-07T08:43:07.974Z,4.4
2018-01-07T08:44:09.537Z,4.5
2018-01-07T08:45:11.062Z,4.3
2018-01-07T08:46:12.721Z,4.3
2018-01-07T08:47:14.447Z,4.3
2018-01-07T08:48:16.031Z,4.4
2018-01-07T08:49:17.511Z,4.3
2018-01-07T08:50:19.143Z,4.2
2018-01-07T08:51:20.639Z,4.3
2018-01-07T08:52:22.246Z,4.3
2018-01-07T08:53:23.840Z,4.5
2018-01-07T08:54:25.352Z,4.5
2018-01-07T08:55:26.960Z,4.5
2018-01-07T08:56:28.454Z,4.4
2018-01-07T08:57:29.914Z,4.5
2018-01-07T08:58:31.456Z,4.5
2018-01-07T08:59:33.118Z,4.5
2018-01-07T09:00:34.676Z,4.4
2018-01-07T09:01:36.260Z,4.5
2018-01-07T09:02:37.769Z,4.6
2018-01-07T09:03:39.244Z,4.4
2018-01-07T09:04:40.714Z,4.5
2018-01-07T09:05:42.499Z,4.4
2018-01-07T09:06:45.131Z,4.4
2018-01-07T09:07:46.605Z,4.4
2018-01-07T09:08:48.047Z,4.5
2018-01-07T09:09:49.574Z,4.5
2018-01-07T09:10:51.065Z,4.5
2018-01-07T09:11:52.545Z,4.6
2018-01-07T09:12:54.053Z,4.6
2018-01-07T09:13:55.601Z,4.5
2018-01-07T09:14:57.096Z,4.6
2018-01-07T09:15:58.779Z,4.5
2018-01-07T09:17:00.359Z,4.6
2018-01-07T09:18:01.848Z,4.6
2018-01-07T09:19:03.382Z,4.4
2018-01-07T09:20:04.927Z,4.5
2018-01-07T09:21:06.408Z,4.4
2018-01-07T09:22:07.943Z,4.5
2018-01-07T09:23:09.432Z,4.6
2018-01-07T09:24:11.009Z,4.5
2018-01-07T09:25:12.519Z,4.5
2018-01-07T09:26:14.018Z,4.6
2018-01-07T09:27:28.014Z,4.6
2018-01-07T09:28:30.037Z,4.5
2018-01-07T09:29:33.454Z,4.5
2018-01-07T09:30:35.055Z,4.6
2018-01-07T09:31:36.568Z,4.5
2018-01-07T09:32:38.038Z,4.5
2018-01-07T09:33:39.745Z,4.5
2018-01-07T09:34:41.362Z,4.5
2018-01-07T09:35:42.891Z,4.6
2018-01-07T09:36:44.404Z,4.6
2018-01-07T09:37:46.078Z,4.5
2018-01-07T09:38:47.609Z,4.5
2018-01-07T09:39:49.164Z,4.5
2018-01-07T09:40:50.675Z,4.5
2018-01-07T09:41:52.239Z,4.5
2018-01-07T09:42:53.738Z,4.5
2018-01-07T09:43:55.272Z,4.5
2018-01-07T09:44:56.804Z,4.4
2018-01-07T09:45:58.326Z,4.4
2018-01-07T09:46:59.847Z,4.5
2018-01-07T09:48:01.372Z,4.6
2018-01-07T09:49:02.805Z,4.4
2018-01-07T09:50:04.343Z,4.5
2018-01-07T09:51:05.880Z,4.5
2018-01-07T09:52:07.371Z,4.6
2018-01-07T09:53:09.058Z,4.5
2018-01-07T09:54:10.562Z,4.5
2018-01-07T09:55:12.030Z,4.5
2018-01-07T09:56:13.492Z,4.5
2018-01-07T09:57:15.000Z,4.5
2018-01-07T09:58:16.583Z,4.5
2018-01-07T09:59:20.217Z,4.5
2018-01-07T10:00:21.615Z,4.2
2018-01-07T10:01:23.054Z,4.2
2018-01-07T10:02:24.579Z,4.2
2018-01-07T10:03:26.497Z,4.2
2018-01-07T10:05:13.133Z,4.3
2018-01-07T10:06:14.621Z,4.3
2018-01-07T10:07:16.522Z,4.3
2018-01-07T10:08:17.965Z,4.3
2018-01-07T10:09:19.402Z,4.5
2018-01-07T10:10:20.773Z,4.4
2018-01-07T10:11:22.278Z,4.4
2018-01-07T10:12:23.860Z,4.4
2018-01-07T10:13:25.663Z,4.2
2018-01-07T10:14:27.184Z,4.3
2018-01-07T10:15:28.690Z,4.3
2018-01-07T10:16:30.173Z,4.4
2018-01-07T10:17:31.698Z,4.4
2018-01-07T10:18:33.183Z,4.3
2018-01-07T10:19:34.656Z,4.4
2018-01-07T10:20:36.241Z,4.4
2018-01-07T10:21:37.815Z,4.4
2018-01-07T10:22:39.388Z,4.4
2018-01-07T10:23:40.854Z,4.5
2018-01-07T10:24:42.380Z,4.5
2018-01-07T10:25:43.964Z,4.6
2018-01-07T10:26:45.446Z,4.5
2018-01-07T10:27:46.959Z,4.6
2018-01-07T10:28:50.702Z,4.5
2018-01-07T10:29:54.416Z,4.7
2018-01-07T10:30:56.188Z,4.7
2018-01-07T10:31:57.725Z,4.6
2018-01-07T10:32:59.425Z,4.6
2018-01-07T10:34:00.935Z,4.7
2018-01-07T10:35:02.647Z,4.7
2018-01-07T10:36:04.071Z,4.6
2018-01-07T10:37:05.690Z,4.5
2018-01-07T10:38:07.297Z,4.4
2018-01-07T10:39:08.840Z,4.6
2018-01-07T10:40:10.436Z,4.5
2018-01-07T10:41:12.003Z,4.6
2018-01-07T10:42:13.604Z,4.5
2018-01-07T10:43:15.187Z,4.6
2018-01-07T10:44:16.740Z,4.6
2018-01-07T10:45:18.268Z,4.6
2018-01-07T10:46:19.762Z,4.5
2018-01-07T10:47:21.328Z,4.5
2018-01-07T10:48:23.017Z,4.6
2018-01-07T10:49:24.575Z,4.6
2018-01-07T10:50:26.187Z,4.6
2018-01-07T10:51:27.620Z,4.6
2018-01-07T10:52:29.280Z,4.6
2018-01-07T10:53:30.782Z,4.6
2018-01-07T10:54:32.314Z,4.5
2018-01-07T10:55:34.000Z,4.5
2018-01-07T10:56:35.592Z,4.5
2018-01-07T10:57:37.212Z,4.5
2018-01-07T10:58:38.754Z,4.4
2018-01-07T10:59:40.317Z,4.4
2018-01-07T11:00:41.830Z,4.4
2018-01-07T11:01:43.477Z,4.4
2018-01-07T11:02:45.005Z,4.5
2018-01-07T11:03:46.634Z,4.5
2018-01-07T11:04:48.196Z,4.5
2018-01-07T11:05:49.728Z,4.5
2018-01-07T11:06:51.312Z,4.5
2018-01-07T11:07:52.832Z,4.4
2018-01-07T11:08:54.395Z,4.5
2018-01-07T11:09:56.009Z,4.5
2018-01-07T11:10:57.580Z,4.5
2018-01-07T11:11:59.102Z,4.5
2018-01-07T11:13:00.688Z,4.5
2018-01-07T11:14:02.502Z,4.5
2018-01-07T11:15:04.456Z,4.5
2018-01-07T11:16:06.073Z,4.6
2018-01-07T11:17:07.596Z,4.6
2018-01-07T11:18:09.277Z,4.5
2018-01-07T11:19:10.769Z,4.5
2018-01-07T11:20:12.296Z,4.5
2018-01-07T11:21:13.892Z,4.4
2018-01-07T11:22:15.405Z,4.3
2018-01-07T11:23:16.921Z,4.3
2018-01-07T11:24:18.410Z,4.3
2018-01-07T11:25:19.978Z,4.3
2018-01-07T11:26:21.507Z,4.4
2018-01-07T11:27:23.031Z,4.5
2018-01-07T11:28:24.608Z,4.5
2018-01-07T11:29:26.067Z,4.5
2018-01-07T11:30:27.648Z,4.5
2018-01-07T11:31:29.163Z,4.4
2018-01-07T11:32:30.775Z,4.4
2018-01-07T11:33:32.314Z,4.5
2018-01-07T11:34:33.799Z,4.4
2018-01-07T11:35:35.490Z,4.4
2018-01-07T11:36:37.007Z,4.5
2018-01-07T11:37:38.607Z,4.5
2018-01-07T11:38:40.122Z,4.6
2018-01-07T11:39:41.673Z,4.5
2018-01-07T11:40:43.217Z,4.6
2018-01-07T11:41:44.713Z,4.6
2018-01-07T11:42:46.259Z,4.6
2018-01-07T11:43:47.794Z,4.6
2018-01-07T11:44:49.383Z,4.6
2018-01-07T11:45:50.921Z,4.5
2018-01-07T11:46:52.442Z,4.5
2018-01-07T11:47:53.941Z,4.6
2018-01-07T11:48:55.568Z,4.6
2018-01-07T11:49:57.127Z,4.5
2018-01-07T11:50:58.685Z,4.5
2018-01-07T11:52:00.124Z,4.6
2018-01-07T11:53:01.582Z,4.5
2018-01-07T11:54:03.127Z,4.5
2018-01-07T11:55:04.578Z,4.5
2018-01-07T11:56:06.041Z,4.6
2018-01-07T11:57:07.570Z,4.5
2018-01-07T11:58:09.036Z,4.4
2018-01-07T11:59:10.569Z,4.5
2018-01-07T12:00:12.190Z,4.5
2018-01-07T12:01:13.795Z,4.5
2018-01-07T12:02:15.326Z,4.4
2018-01-07T12:03:16.822Z,4.4
2018-01-07T12:04:18.341Z,4.4
2018-01-07T12:05:20.004Z,4.5
2018-01-07T12:06:21.539Z,4.3
2018-01-07T12:07:23.153Z,4.5
2018-01-07T12:08:24.746Z,4.5
2018-01-07T12:09:26.243Z,4.5
2018-01-07T12:10:27.864Z,4.4
2018-01-07T12:11:29.440Z,4.4
2018-01-07T12:12:31.033Z,4.5
2018-01-07T12:13:32.794Z,4.4
2018-01-07T12:14:34.410Z,4.5
2018-01-07T12:15:35.911Z,4.6
2018-01-07T12:16:37.529Z,4.5
2018-01-07T12:17:39.345Z,4.5
2018-01-07T12:18:40.902Z,4.6
2018-01-07T12:19:42.618Z,4.6
2018-01-07T12:20:44.241Z,4.5
2018-01-07T12:21:45.802Z,4.5
2018-01-07T12:22:47.541Z,4.5
2018-01-07T12:23:49.287Z,4.5
2018-01-07T12:24:50.968Z,4.5
2018-01-07T12:25:52.686Z,4.5
2018-01-07T12:26:54.239Z,4.4
2018-01-07T12:27:55.845Z,4.5
2018-01-07T12:28:57.719Z,4.5
2018-01-07T12:29:59.446Z,4.5
2018-01-07T12:31:01.173Z,4.5
2018-01-07T12:32:02.894Z,4.5
2018-01-07T12:33:04.585Z,4.6
2018-01-07T12:34:06.169Z,4.6
2018-01-07T12:35:07.816Z,4.7
2018-01-07T12:36:09.656Z,4.7
2018-01-07T12:37:11.242Z,4.6
2018-01-07T12:38:12.926Z,4.7
2018-01-07T12:39:14.607Z,4.6
2018-01-07T12:40:16.511Z,4.6
2018-01-07T12:41:18.615Z,4.6
2018-01-07T12:42:20.451Z,4.6
2018-01-07T12:43:22.278Z,4.5
2018-01-07T12:44:25.761Z,4.6
2018-01-07T12:45:27.334Z,4.5
2018-01-07T12:46:29.468Z,4.6
2018-01-07T12:47:31.440Z,4.5
2018-01-07T12:48:33.187Z,4.6
2018-01-07T12:49:34.942Z,4.6
2018-01-07T12:50:36.769Z,4.6
2018-01-07T12:51:38.673Z,4.5
2018-01-07T12:52:40.474Z,4.5
2018-01-07T12:53:41.933Z,4.5
2018-01-07T12:54:43.878Z,4.5
2018-01-07T12:55:45.736Z,4.5
2018-01-07T12:56:47.709Z,4.6
2018-01-07T12:57:49.285Z,4.5
2018-01-07T12:58:50.837Z,4.4
2018-01-07T12:59:52.431Z,4.4
2018-01-07T13:00:54.052Z,4.5
2018-01-07T13:01:55.761Z,4.5
2018-01-07T13:02:57.423Z,4.6
2018-01-07T13:03:59.035Z,4.5
2018-01-07T13:05:00.790Z,4.5
2018-01-07T13:06:02.352Z,4.5
2018-01-07T13:07:03.954Z,4.5
2018-01-07T13:08:05.517Z,4.5
2018-01-07T13:09:07.686Z,4.6
2018-01-07T13:10:09.995Z,4.5
2018-01-07T13:11:11.605Z,4.6
2018-01-07T13:12:13.557Z,4.5
2018-01-07T13:13:15.498Z,4.6
2018-01-07T13:14:17.249Z,4.6
2018-01-07T13:15:18.870Z,4.5
2018-01-07T13:16:20.472Z,4.6
2018-01-07T13:17:22.090Z,4.5
2018-01-07T13:18:23.875Z,4.5
2018-01-07T13:19:25.579Z,4.4
2018-01-07T13:20:27.242Z,4.5
2018-01-07T13:21:28.934Z,4.5
2018-01-07T13:22:30.565Z,4.5
2018-01-07T13:23:32.498Z,4.6
2018-01-07T13:24:37.415Z,4.6
2018-01-07T13:25:42.141Z,4.6
2018-01-07T13:27:24.093Z,4.6
2018-01-07T13:28:27.602Z,4.6
2018-01-07T13:29:29.015Z,4.6
2018-01-07T13:30:30.533Z,4.6
2018-01-07T13:31:32.146Z,4.5
2018-01-07T13:32:33.785Z,4.6
2018-01-07T13:33:35.404Z,4.6
2018-01-07T13:34:37.067Z,4.5
2018-01-07T13:35:38.622Z,4.6
2018-01-07T13:36:40.444Z,4.5
2018-01-07T13:37:42.099Z,4.6
2018-01-07T13:38:43.706Z,4.6
2018-01-07T13:39:45.245Z,4.5
2018-01-07T13:40:46.737Z,4.5
2018-01-07T13:41:48.248Z,4.5
2018-01-07T13:42:49.777Z,4.5
2018-01-07T13:43:51.417Z,4.5
2018-01-07T13:44:52.934Z,4.5
2018-01-07T13:45:54.477Z,4.5
2018-01-07T13:46:56.075Z,4.4
2018-01-07T13:47:57.785Z,4.3
2018-01-07T13:48:59.465Z,4.3
2018-01-07T13:50:01.166Z,4.3
2018-01-07T13:51:02.919Z,4.3
2018-01-07T13:52:04.633Z,4.4
2018-01-07T13:53:06.440Z,4.4
2018-01-07T13:54:09.389Z,4.4
2018-01-07T13:55:11.046Z,4.4
2018-01-07T13:56:12.602Z,4.5
2018-01-07T13:57:14.380Z,4.6
2018-01-07T13:58:16.168Z,4.5
2018-01-07T13:59:17.929Z,4.5
2018-01-07T14:00:19.651Z,4.4
2018-01-07T14:01:21.198Z,4.5
2018-01-07T14:02:22.827Z,4.5
2018-01-07T14:03:24.518Z,4.5
2018-01-07T14:04:26.049Z,4.4
2018-01-07T14:05:27.681Z,4.5
2018-01-07T14:06:29.226Z,4.4
2018-01-07T14:07:30.781Z,4.4
2018-01-07T14:08:32.370Z,4.4
2018-01-07T14:09:33.958Z,4.5
2018-01-07T14:10:35.565Z,4.5